createdAt,value
2022-12-09T00:01:07.584Z,10.75
2022-12-09T00:03:35.617Z,9.50
2022-12-09T00:06:16.025Z,11.25
2022-12-09T00:08:44.637Z,10.75
2022-12-09T00:11:12.763Z,10.57
2022-12-09T00:13:40.414Z,9.45
2022-12-09T00:16:10.843Z,9.75
2022-12-09T00:18:39.204Z,10.32
2022-12-09T00:21:14.646Z,10.15
2022-12-09T00:23:42.389Z,9.68
2022-12-09T00:26:09.945Z,9.63
2022-12-09T00:28:38.190Z,10.57
2022-12-09T00:31:06.817Z,9.63
2022-12-09T00:33:35.269Z,9.57
2022-12-09T00:36:06.323Z,9.70
2022-12-09T00:38:34.059Z,9.57
2022-12-09T00:41:02.527Z,8.77
2022-12-09T00:43:30.280Z,9.70
2022-12-09T00:45:58.198Z,9.85
2022-12-09T00:48:26.725Z,9.90
2022-12-09T00:50:54.958Z,9.90
2022-12-09T00:53:22.950Z,9.98
2022-12-09T00:55:50.646Z,9.05
2022-12-09T00:58:18.618Z,9.20
2022-12-09T01:00:46.484Z,9.32
2022-12-09T01:03:16.179Z,8.77
2022-12-09T01:05:44.465Z,8.23
2022-12-09T01:08:13.166Z,9.13
2022-12-09T01:10:43.040Z,9.52
2022-12-09T01:13:12.581Z,7.85
2022-12-09T01:15:40.852Z,8.27
2022-12-09T01:18:09.085Z,8.93
2022-12-09T01:20:36.539Z,8.48
2022-12-09T01:25:31.311Z,8.85
2022-12-09T01:27:59.126Z,7.55
2022-12-09T01:30:26.645Z,7.90
2022-12-09T01:35:22.269Z,7.97
2022-12-09T01:37:50.142Z,8.07
2022-12-09T01:40:19.003Z,8.50
2022-12-09T01:42:46.905Z,7.82
2022-12-09T01:45:22.036Z,7.53
2022-12-09T01:48:11.337Z,8.35
2022-12-09T01:50:47.423Z,8.35
2022-12-09T01:53:17.359Z,7.95
2022-12-09T01:55:45.672Z,7.55
2022-12-09T01:58:14.490Z,7.82
2022-12-09T02:00:42.903Z,7.93
2022-12-09T02:03:10.659Z,7.75
2022-12-09T02:05:38.653Z,7.40
2022-12-09T02:08:18.721Z,8.15
2022-12-09T02:11:15.613Z,7.53
2022-12-09T02:14:01.404Z,7.47
2022-12-09T02:16:34.829Z,9.07
2022-12-09T02:19:05.333Z,9.02
2022-12-09T02:21:41.042Z,9.68
2022-12-09T02:24:43.438Z,9.43
2022-12-09T02:27:23.572Z,9.68
2022-12-09T02:30:18.329Z,9.95
2022-12-09T02:33:07.285Z,8.88
2022-12-09T02:36:01.542Z,9.98
2022-12-09T02:38:32.512Z,10.30
2022-12-09T02:41:03.639Z,10.30
2022-12-09T02:43:38.015Z,8.95
2022-12-09T02:46:09.064Z,10.18
2022-12-09T02:48:43.047Z,10.23
2022-12-09T02:51:15.264Z,10.48
2022-12-09T02:53:46.733Z,10.00
2022-12-09T02:56:15.732Z,9.88
2022-12-09T02:58:43.486Z,10.10
2022-12-09T03:01:29.567Z,9.50
2022-12-09T03:03:57.458Z,9.70
2022-12-09T03:06:31.462Z,8.98
2022-12-09T03:09:24.101Z,8.07
2022-12-09T03:11:53.233Z,8.65
2022-12-09T03:14:40.335Z,9.18
2022-12-09T03:19:49.148Z,9.15
2022-12-09T03:22:20.211Z,9.30
2022-12-09T03:24:54.403Z,9.18
2022-12-09T03:27:38.312Z,9.63
2022-12-09T03:30:09.060Z,11.02
2022-12-09T03:32:39.199Z,9.15
2022-12-09T03:35:13.215Z,8.48
2022-12-09T03:37:44.270Z,9.18
2022-12-09T03:40:17.167Z,10.40
2022-12-09T03:42:58.984Z,9.10
2022-12-09T03:45:27.194Z,10.05
2022-12-09T03:47:55.678Z,10.05
2022-12-09T03:50:27.497Z,10.48
2022-12-09T03:53:05.870Z,9.90
2022-12-09T03:55:46.899Z,9.90
2022-12-09T03:58:16.558Z,9.80
2022-12-09T04:00:44.962Z,10.23
2022-12-09T04:03:14.753Z,8.90
2022-12-09T04:05:43.255Z,9.82
2022-12-09T04:08:11.460Z,9.88
2022-12-09T04:10:39.389Z,9.88
2022-12-09T04:13:07.341Z,9.48
2022-12-09T04:15:34.779Z,9.85
2022-12-09T04:20:29.777Z,9.23
2022-12-09T04:25:25.542Z,9.57
2022-12-09T04:27:53.110Z,9.18
2022-12-09T04:32:48.535Z,9.38
2022-12-09T04:35:16.292Z,9.90
2022-12-09T04:37:43.915Z,10.35
2022-12-09T04:42:44.238Z,9.80
2022-12-09T04:47:39.847Z,9.95
2022-12-09T04:50:08.073Z,9.52
2022-12-09T04:52:36.098Z,10.00
2022-12-09T04:55:03.907Z,10.35
2022-12-09T04:57:31.472Z,9.70
2022-12-09T05:07:23.891Z,10.48
2022-12-09T05:09:51.630Z,10.40
2022-12-09T05:12:19.449Z,9.25
2022-12-09T05:14:46.982Z,10.50
2022-12-09T05:19:42.078Z,9.65
2022-12-09T05:24:37.106Z,10.45
2022-12-09T05:29:32.044Z,10.57
2022-12-09T05:31:59.600Z,9.57
2022-12-09T05:34:27.662Z,9.85
2022-12-09T05:36:55.660Z,9.93
2022-12-09T05:39:23.955Z,9.88
2022-12-09T05:41:51.716Z,11.18
2022-12-09T05:44:19.452Z,10.38
2022-12-09T05:46:47.151Z,11.23
2022-12-09T05:49:15.245Z,10.50
2022-12-09T05:51:43.248Z,10.48
2022-12-09T05:54:11.147Z,10.48
2022-12-09T05:56:42.840Z,11.07
2022-12-09T05:59:13.859Z,10.85
2022-12-09T06:01:41.419Z,10.20
2022-12-09T06:04:09.336Z,10.65
2022-12-09T06:06:37.260Z,11.18
2022-12-09T06:09:11.593Z,10.65
2022-12-09T06:11:41.148Z,11.20
2022-12-09T06:14:10.177Z,10.90
2022-12-09T06:16:38.813Z,10.32
2022-12-09T06:19:06.802Z,10.38
2022-12-09T06:21:34.726Z,10.88
2022-12-09T06:24:02.537Z,10.57
2022-12-09T06:26:30.723Z,10.60
2022-12-09T06:28:59.794Z,10.90
2022-12-09T06:31:28.646Z,11.07
2022-12-09T06:33:58.448Z,11.32
2022-12-09T06:36:29.626Z,10.65
2022-12-09T06:39:05.860Z,10.55
2022-12-09T06:41:37.266Z,12.32
2022-12-09T06:44:04.956Z,10.52
2022-12-09T06:46:32.831Z,10.95
2022-12-09T06:49:01.004Z,10.82
2022-12-09T06:51:30.196Z,11.60
2022-12-09T06:53:58.049Z,10.43
2022-12-09T06:56:26.177Z,11.45
2022-12-09T06:58:53.719Z,10.82
2022-12-09T07:01:24.859Z,11.50
2022-12-09T07:03:56.653Z,11.27
2022-12-09T07:06:39.157Z,11.13
2022-12-09T07:09:13.447Z,11.38
2022-12-09T07:11:47.268Z,11.32
2022-12-09T07:14:16.857Z,11.23
2022-12-09T07:16:45.338Z,11.27
2022-12-09T07:19:18.356Z,11.85
2022-12-09T07:21:47.013Z,11.60
2022-12-09T07:24:15.295Z,12.13
2022-12-09T07:26:43.388Z,11.93
2022-12-09T07:29:11.142Z,12.32
2022-12-09T07:31:39.037Z,11.25
2022-12-09T07:34:07.030Z,11.82
2022-12-09T07:36:35.853Z,11.32
2022-12-09T07:39:15.422Z,11.80
2022-12-09T07:41:43.414Z,12.88
2022-12-09T07:44:12.740Z,12.95
2022-12-09T07:46:40.852Z,11.40
2022-12-09T07:49:10.951Z,11.60
2022-12-09T07:51:40.222Z,11.40
2022-12-09T07:54:11.842Z,12.48
2022-12-09T07:56:39.709Z,11.80
2022-12-09T07:59:09.708Z,12.05
2022-12-09T08:01:37.840Z,13.13
2022-12-09T08:04:06.503Z,12.73
2022-12-09T08:06:36.116Z,12.48
2022-12-09T08:09:07.354Z,13.68
2022-12-09T08:11:35.964Z,12.68
2022-12-09T08:14:10.994Z,13.18
2022-12-09T08:16:41.879Z,12.77
2022-12-09T08:19:10.358Z,12.63
2022-12-09T08:21:39.027Z,12.02
2022-12-09T08:24:08.020Z,12.23
2022-12-09T08:26:37.637Z,11.15
2022-12-09T08:29:11.082Z,12.88
2022-12-09T08:31:42.376Z,12.18
2022-12-09T08:34:11.144Z,11.70
2022-12-09T08:36:39.286Z,11.30
2022-12-09T08:39:07.853Z,11.13
2022-12-09T08:41:38.602Z,12.23
2022-12-09T08:44:08.172Z,10.85
2022-12-09T08:46:38.042Z,11.95
2022-12-09T08:49:07.309Z,11.60
2022-12-09T08:51:35.860Z,11.90
2022-12-09T08:54:05.083Z,10.95
2022-12-09T08:56:32.815Z,10.57
2022-12-09T08:59:00.618Z,12.40
2022-12-09T09:01:35.358Z,11.52
2022-12-09T09:04:09.889Z,11.43
2022-12-09T09:06:40.936Z,10.88
2022-12-09T09:09:10.877Z,10.98
2022-12-09T09:11:39.449Z,11.50
2022-12-09T09:14:09.554Z,11.20
2022-12-09T09:16:40.026Z,11.23
2022-12-09T09:19:08.942Z,12.02
2022-12-09T09:21:37.003Z,10.93
2022-12-09T09:24:12.927Z,11.68
2022-12-09T09:26:43.505Z,11.30
2022-12-09T09:29:13.486Z,11.35
2022-12-09T09:31:41.285Z,10.77
2022-12-09T09:34:10.219Z,10.85
2022-12-09T09:36:37.876Z,11.45
2022-12-09T09:41:53.634Z,10.90
2022-12-09T09:44:28.137Z,11.77
2022-12-09T09:46:57.643Z,11.13
2022-12-09T09:50:01.973Z,10.52
2022-12-09T09:52:31.736Z,11.85
2022-12-09T09:54:59.502Z,11.38
2022-12-09T09:57:41.145Z,11.40
2022-12-09T10:00:28.863Z,11.50
2022-12-09T10:03:14.130Z,11.38
2022-12-09T10:06:09.798Z,11.32
2022-12-09T10:08:49.633Z,10.95
2022-12-09T10:11:23.848Z,11.55
2022-12-09T10:13:58.921Z,11.85
2022-12-09T10:16:34.769Z,11.15
2022-12-09T10:19:30.994Z,10.60
2022-12-09T10:22:02.511Z,11.23
2022-12-09T10:24:40.161Z,11.23
2022-12-09T10:27:38.088Z,11.45
2022-12-09T10:30:14.531Z,12.00
2022-12-09T10:32:43.440Z,11.07
2022-12-09T10:35:23.951Z,11.25
2022-12-09T10:37:54.201Z,11.15
2022-12-09T10:40:50.462Z,10.43
2022-12-09T10:43:35.267Z,11.23
2022-12-09T10:46:17.909Z,9.77
2022-12-09T10:48:47.464Z,10.98
2022-12-09T10:51:21.694Z,10.90
2022-12-09T10:54:00.058Z,10.35
2022-12-09T10:56:37.740Z,11.38
2022-12-09T10:59:19.611Z,10.63
2022-12-09T11:01:52.975Z,9.95
2022-12-09T11:04:26.547Z,8.52
2022-12-09T11:07:00.151Z,10.20
2022-12-09T11:09:34.482Z,9.52
2022-12-09T11:12:05.971Z,9.45
2022-12-09T11:14:40.569Z,9.27
2022-12-09T11:17:22.614Z,9.23
2022-12-09T11:19:53.520Z,9.20
2022-12-09T11:22:33.476Z,8.73
2022-12-09T11:25:16.552Z,9.20
2022-12-09T11:27:52.285Z,9.60
2022-12-09T11:30:30.790Z,8.55
2022-12-09T11:33:07.898Z,8.45
2022-12-09T11:35:52.847Z,8.57
2022-12-09T11:38:41.703Z,8.95
2022-12-09T11:41:12.295Z,8.52
2022-12-09T11:43:47.730Z,8.25
2022-12-09T11:46:15.218Z,8.10
2022-12-09T11:48:56.728Z,8.38
2022-12-09T11:51:26.956Z,8.32
2022-12-09T11:54:03.675Z,9.85
2022-12-09T11:56:33.132Z,8.52
2022-12-09T11:59:06.828Z,8.82
2022-12-09T12:02:05.969Z,7.97
2022-12-09T12:04:39.414Z,7.90
2022-12-09T12:07:21.317Z,8.45
2022-12-09T12:09:57.528Z,8.27
2022-12-09T12:12:30.815Z,8.25
2022-12-09T12:15:10.725Z,7.65
2022-12-09T12:17:43.469Z,7.45
2022-12-09T12:20:13.375Z,7.43
2022-12-09T12:23:16.514Z,7.20
2022-12-09T12:25:54.275Z,7.25
2022-12-09T12:28:39.586Z,7.43
2022-12-09T12:31:58.113Z,8.20
2022-12-09T12:34:40.562Z,7.47
2022-12-09T12:37:39.065Z,7.78
2022-12-09T12:40:07.355Z,7.78
2022-12-09T12:43:07.293Z,7.65
2022-12-09T12:46:17.342Z,7.55
2022-12-09T12:49:00.270Z,7.68
2022-12-09T12:51:58.219Z,7.70
2022-12-09T12:54:49.734Z,7.68
2022-12-09T12:57:23.974Z,7.47
2022-12-09T12:59:54.703Z,8.65
2022-12-09T13:02:31.440Z,8.30
2022-12-09T13:05:12.056Z,7.72
2022-12-09T13:08:16.224Z,7.60
2022-12-09T13:10:55.851Z,7.72
2022-12-09T13:13:39.789Z,8.07
2022-12-09T13:16:16.616Z,8.23
2022-12-09T13:18:45.233Z,8.30
2022-12-09T13:21:13.323Z,9.00
2022-12-09T13:23:55.592Z,7.93
2022-12-09T13:26:44.981Z,9.15
2022-12-09T13:29:36.180Z,8.27
2022-12-09T13:32:28.065Z,8.63
2022-12-09T13:35:04.982Z,8.73
2022-12-09T13:37:44.618Z,8.18
2022-12-09T13:40:21.304Z,9.73
2022-12-09T13:42:53.198Z,8.75
2022-12-09T13:45:23.857Z,8.43
2022-12-09T13:47:54.886Z,8.00
2022-12-09T13:50:39.777Z,8.68
2022-12-09T13:53:27.537Z,7.40
2022-12-09T13:55:59.136Z,7.65
2022-12-09T13:58:33.008Z,7.72
2022-12-09T14:01:12.372Z,8.05
2022-12-09T14:04:01.563Z,8.07
2022-12-09T14:06:47.318Z,7.95
2022-12-09T14:09:43.147Z,7.47
2022-12-09T14:12:13.672Z,8.60
2022-12-09T14:14:44.064Z,7.90
2022-12-09T14:17:29.024Z,7.72
2022-12-09T14:20:18.476Z,7.55
2022-12-09T14:23:09.878Z,7.53
2022-12-09T14:25:37.394Z,7.45
2022-12-09T14:30:52.186Z,6.95
2022-12-09T14:33:29.713Z,6.15
2022-12-09T14:36:13.221Z,6.55
2022-12-09T14:39:24.351Z,7.43
2022-12-09T14:41:52.689Z,6.43
2022-12-09T14:47:15.925Z,6.03
2022-12-09T14:49:49.151Z,5.68
2022-12-09T14:52:32.261Z,6.20
2022-12-09T14:55:03.309Z,5.70
2022-12-09T14:57:37.276Z,5.57
2022-12-09T15:00:06.947Z,5.72
2022-12-09T15:02:34.929Z,6.10
2022-12-09T15:05:03.304Z,6.25
2022-12-09T15:07:33.025Z,5.72
2022-12-09T15:10:06.316Z,5.63
2022-12-09T15:13:03.831Z,6.03
2022-12-09T15:15:33.059Z,6.00
2022-12-09T15:18:05.062Z,5.80
2022-12-09T15:20:36.695Z,5.55
2022-12-09T15:23:20.757Z,5.60
2022-12-09T15:25:52.622Z,5.32
2022-12-09T15:28:26.555Z,5.90
2022-12-09T15:31:03.039Z,6.32
2022-12-09T15:33:39.976Z,6.30
2022-12-09T15:36:15.219Z,6.97
2022-12-09T15:38:49.593Z,6.63
2022-12-09T15:41:37.512Z,6.68
2022-12-09T15:44:11.337Z,6.22
2022-12-09T15:46:42.067Z,6.70
2022-12-09T15:49:13.973Z,7.18
2022-12-09T15:51:44.545Z,6.68
2022-12-09T15:54:18.971Z,7.35
2022-12-09T15:57:14.898Z,6.50
2022-12-09T15:59:47.764Z,6.40
2022-12-09T16:02:28.189Z,7.28
2022-12-09T16:07:25.383Z,7.20
2022-12-09T16:10:07.322Z,7.68
2022-12-09T16:12:36.563Z,7.38
2022-12-09T16:15:06.980Z,7.25
2022-12-09T16:17:52.404Z,8.25
2022-12-09T16:20:32.537Z,7.00
2022-12-09T16:23:01.973Z,8.20
2022-12-09T16:25:35.696Z,7.30
2022-12-09T16:28:05.886Z,8.05
2022-12-09T16:30:45.782Z,8.27
2022-12-09T16:33:19.542Z,7.40
2022-12-09T16:36:02.339Z,8.27
2022-12-09T16:38:32.650Z,8.30
2022-12-09T16:41:11.718Z,7.40
2022-12-09T16:43:54.437Z,8.05
2022-12-09T16:46:41.554Z,7.72
2022-12-09T16:49:09.132Z,8.27
2022-12-09T16:54:18.093Z,7.97
2022-12-09T16:56:48.157Z,8.63
2022-12-09T16:59:15.602Z,8.73
2022-12-09T17:04:18.023Z,8.20
2022-12-09T17:06:45.964Z,8.98
2022-12-09T17:09:13.659Z,8.90
2022-12-09T17:11:46.967Z,9.93
2022-12-09T17:14:16.686Z,9.95
2022-12-09T17:16:44.577Z,10.65
2022-12-09T17:19:13.348Z,9.18
2022-12-09T17:24:10.122Z,10.35
2022-12-09T17:26:37.709Z,9.98
2022-12-09T17:29:07.256Z,9.55
2022-12-09T17:31:34.841Z,9.98
2022-12-09T17:34:02.410Z,9.63
